Emslake — V2FL4 — position and weather

sailwx.info

Track history (hours):
 
Tides and Currents Weather Stations Pressure Air Temp Water Temp Dewpoint Dewpoint Depression Visibility Wind Speed Wind Dir Waves Ship Positions

Emslake

Last reported at 2016-May-22 08:04 UTC. Time now 2016-May-24 09:58 UTC.
Position N 55°48' E 015°59'.

Length 100 m; draft 6.4 m.

Type: Cargo ship. MMSI: 305712000.

Date/timePositionNaut miles runAvg speedWind from/ knotsBaromVisibWave heightAir tempDewpointWater temp
2016-May-22 08:04N 55°48' E 015°59'5 9.8
2016-May-22 07:33N 55°46' E 015°51'1010.0
2016-May-22 06:33N 55°41' E 015°36'1010.2
2016-May-22 05:33N 55°36' E 015°20'1010.0
2016-May-22 04:33N 55°31' E 015°05'1010.3
2016-May-22 03:33N 55°26' E 014°49'1010.0
2016-May-22 02:33N 55°19' E 014°35'1010.1
2016-May-22 01:34N 55°12' E 014°24'1010.2
2016-May-22 00:33N 55°04' E 014°12'1010.2
2016-May-21 23:33N 54°59' E 013°57'1010.3
2016-May-21 22:33N 54°55' E 013°40'1010.1
2016-May-21 21:33N 54°51' E 013°24'1010.0
2016-May-21 20:33N 54°47' E 013°08'10 9.6
2016-May-21 19:33N 54°43' E 012°53'10 9.8
2016-May-21 18:34N 54°38' E 012°38'10 9.6
2016-May-21 17:32N 54°33' E 012°23'10 9.7
2016-May-21 16:32N 54°26' E 012°12'9 9.1
2016-May-21 15:33N 54°25' E 011°57'10 9.5
2016-May-21 14:33N 54°26' E 011°41'9 9.2
2016-May-21 13:33N 54°30' E 011°26'10 9.6
2016-May-21 12:33N 54°34' E 011°11'10 9.9
2016-May-21 11:33N 54°34' E 010°54'1010.4
2016-May-21 10:33N 54°33' E 010°36'1010.0
2016-May-21 09:34N 54°30' E 010°20'9 9.0
2016-May-21 08:33N 54°22' E 010°11'2 1.9
2016-May-21 07:33N 54°22' E 010°08'4 3.9
2016-May-21 06:34N 54°22' E 010°01'4 4.3
2016-May-21 05:33N 54°21' E 009°54'4 3.8
2016-May-21 04:34N 54°22' E 009°47'8 7.6
2016-May-21 03:33N 54°16' E 009°38'4 4.5
2016-May-21 02:34N 54°12' E 009°34'8 8.1
2016-May-21 01:33N 54°09' E 009°22'8 8.1
2016-May-21 00:34N 54°01' E 009°18'8 8.2
2016-May-20 23:34N 53°54' E 009°10'1 1.3
2016-May-20 22:34N 53°54' E 009°09'2 2.0
2016-May-20 21:34N 53°53' E 009°05'10 9.6
2016-May-20 20:33N 53°50' E 008°50'1110.9
2016-May-20 19:34N 53°57' E 008°36'1111.2
2016-May-20 18:34N 53°59' E 008°17'1111.0
2016-May-20 17:34N 53°58' E 007°59'10 9.9
2016-May-20 16:34N 53°56' E 007°42'9 9.4
2016-May-20 15:33N 53°54' E 007°26'9 9.1
2016-May-20 14:33N 53°52' E 007°11'9 9.1
2016-May-20 13:34N 53°50' E 006°56'9 9.3
2016-May-20 12:33N 53°48' E 006°41'10 9.4
2016-May-20 11:33N 53°45' E 006°25'10 9.6
2016-May-20 10:33N 53°42' E 006°10'1010.0
2016-May-20 09:33N 53°39' E 005°54'1010.4
2016-May-20 08:33N 53°35' E 005°38'1110.8
2016-May-20 07:33N 53°32' E 005°20'1111.0
2016-May-20 06:34N 53°28' E 005°03'3410.8
2016-May-20 03:25N 53°03' E 004°25'1111.6
2016-May-20 02:31N 52°54' E 004°16'1211.7
2016-May-20 01:31N 52°44' E 004°06'1611.2
2016-May-20 00:07N 52°33' E 003°48'1110.6
2016-May-19 23:04N 52°25' E 003°35'610.1
2016-May-19 22:31N 52°21' E 003°29'12 9.6
2016-May-19 21:15N 52°12' E 003°15'24 8.8
2016-May-19 18:31N 51°54' E 002°49'9 9.1
2016-May-19 17:34N 51°47' E 002°40'10 9.6
2016-May-19 16:33N 51°40' E 002°30'1010.1
2016-May-19 15:33N 51°32' E 002°20'1110.6
2016-May-19 14:34N 51°23' E 002°11'1110.9
2016-May-19 13:33N 51°14' E 002°03'1111.4
2016-May-19 12:33N 51°07' E 001°48'1212.2
2016-May-19 11:33N 50°58' E 001°35'15 0.4
2016-May-17 18:14N 50°43' E 001°34'0 0.0
2016-May-17 17:32N 50°43' E 001°34'0 0.0
2016-May-17 16:26N 50°43' E 001°34'0 0.0
2016-May-17 15:26N 50°43' E 001°34'0 0.1
2016-May-17 14:29N 50°44' E 001°34'0 0.0
2016-May-17 13:14N 50°44' E 001°34'0 0.0
2016-May-17 12:32N 50°44' E 001°34'0 0.0
2016-May-17 11:32N 50°44' E 001°34'0 0.0
2016-May-17 10:33N 50°44' E 001°34'6 5.8
2016-May-17 09:31N 50°44' E 001°25'4210.3
2016-May-17 05:29N 50°23' E 000°28'9 9.4
2016-May-17 04:34N 50°21' E 000°15'9 9.3
2016-May-17 03:33N 50°19' E 000°01'9 9.0
2016-May-17 02:34N 50°17' W 000°13'9 8.8
2016-May-17 01:34N 50°14' W 000°26'8 8.1
2016-May-17 00:33N 50°12' W 000°39'15 7.3
2016-May-16 22:34N 50°08' W 001°00'7 7.1
2016-May-16 21:34N 50°07' W 001°11'8 7.7
2016-May-16 20:34N 50°04' W 001°23'9 8.7
2016-May-16 19:33N 50°02' W 001°36'10 9.8
2016-May-16 18:33N 49°59' W 001°51'2412.0
2016-May-16 16:32N 49°53' W 002°27'1212.0
2016-May-16 15:34N 49°50' W 002°44'1111.3
2016-May-16 14:33N 49°45' W 002°60'1111.0
2016-May-16 13:33N 49°40' W 003°15'1110.8
2016-May-16 12:34N 49°34' W 003°29'1210.4
2016-May-16 11:21N 49°28' W 003°46'66 9.6
2016-May-16 04:29N 48°55' W 005°13'10 9.6
2016-May-16 03:25N 48°49' W 005°26'8 9.5
2016-May-16 02:33N 48°45' W 005°36'10 9.9
2016-May-16 01:33N 48°36' W 005°43'6310.6
2016-May-15 19:33N 47°40' W 006°27'1010.1
2016-May-15 18:33N 47°31' W 006°34'  
Track history (hours):
 
Tides and Currents Weather Stations Pressure Air Temp Water Temp Dewpoint Dewpoint Depression Visibility Wind Speed Wind Dir Waves Ship Positions

Emslake

Last reported at 2016-May-22 08:04 UTC. Time now 2016-May-24 09:58 UTC.
Position N 55°48' E 015°59'.

Length 100 m; draft 6.4 m.

Type: Cargo ship. MMSI: 305712000.

Date/timePositionNaut miles runAvg speedWind from/ knotsBaromVisibWave heightAir tempDewpointWater temp
2016-May-22 08:04N 55°48' E 015°59'5 9.8
2016-May-22 07:33N 55°46' E 015°51'1010.0
2016-May-22 06:33N 55°41' E 015°36'1010.2
2016-May-22 05:33N 55°36' E 015°20'1010.0
2016-May-22 04:33N 55°31' E 015°05'1010.3
2016-May-22 03:33N 55°26' E 014°49'1010.0
2016-May-22 02:33N 55°19' E 014°35'1010.1
2016-May-22 01:34N 55°12' E 014°24'1010.2
2016-May-22 00:33N 55°04' E 014°12'1010.2
2016-May-21 23:33N 54°59' E 013°57'1010.3
2016-May-21 22:33N 54°55' E 013°40'1010.1
2016-May-21 21:33N 54°51' E 013°24'1010.0
2016-May-21 20:33N 54°47' E 013°08'10 9.6
2016-May-21 19:33N 54°43' E 012°53'10 9.8
2016-May-21 18:34N 54°38' E 012°38'10 9.6
2016-May-21 17:32N 54°33' E 012°23'10 9.7
2016-May-21 16:32N 54°26' E 012°12'9 9.1
2016-May-21 15:33N 54°25' E 011°57'10 9.5
2016-May-21 14:33N 54°26' E 011°41'9 9.2
2016-May-21 13:33N 54°30' E 011°26'10 9.6
2016-May-21 12:33N 54°34' E 011°11'10 9.9
2016-May-21 11:33N 54°34' E 010°54'1010.4
2016-May-21 10:33N 54°33' E 010°36'1010.0
2016-May-21 09:34N 54°30' E 010°20'9 9.0
2016-May-21 08:33N 54°22' E 010°11'2 1.9
2016-May-21 07:33N 54°22' E 010°08'4 3.9
2016-May-21 06:34N 54°22' E 010°01'4 4.3
2016-May-21 05:33N 54°21' E 009°54'4 3.8
2016-May-21 04:34N 54°22' E 009°47'8 7.6
2016-May-21 03:33N 54°16' E 009°38'4 4.5
2016-May-21 02:34N 54°12' E 009°34'8 8.1
2016-May-21 01:33N 54°09' E 009°22'8 8.1
2016-May-21 00:34N 54°01' E 009°18'8 8.2
2016-May-20 23:34N 53°54' E 009°10'1 1.3
2016-May-20 22:34N 53°54' E 009°09'2 2.0
2016-May-20 21:34N 53°53' E 009°05'10 9.6
2016-May-20 20:33N 53°50' E 008°50'1110.9
2016-May-20 19:34N 53°57' E 008°36'1111.2
2016-May-20 18:34N 53°59' E 008°17'1111.0
2016-May-20 17:34N 53°58' E 007°59'10 9.9
2016-May-20 16:34N 53°56' E 007°42'9 9.4
2016-May-20 15:33N 53°54' E 007°26'9 9.1
2016-May-20 14:33N 53°52' E 007°11'9 9.1
2016-May-20 13:34N 53°50' E 006°56'9 9.3
2016-May-20 12:33N 53°48' E 006°41'10 9.4
2016-May-20 11:33N 53°45' E 006°25'10 9.6
2016-May-20 10:33N 53°42' E 006°10'1010.0
2016-May-20 09:33N 53°39' E 005°54'1010.4
2016-May-20 08:33N 53°35' E 005°38'1110.8
2016-May-20 07:33N 53°32' E 005°20'1111.0
2016-May-20 06:34N 53°28' E 005°03'3410.8
2016-May-20 03:25N 53°03' E 004°25'1111.6
2016-May-20 02:31N 52°54' E 004°16'1211.7
2016-May-20 01:31N 52°44' E 004°06'1611.2
2016-May-20 00:07N 52°33' E 003°48'1110.6
2016-May-19 23:04N 52°25' E 003°35'610.1
2016-May-19 22:31N 52°21' E 003°29'12 9.6
2016-May-19 21:15N 52°12' E 003°15'24 8.8
2016-May-19 18:31N 51°54' E 002°49'9 9.1
2016-May-19 17:34N 51°47' E 002°40'10 9.6
2016-May-19 16:33N 51°40' E 002°30'1010.1
2016-May-19 15:33N 51°32' E 002°20'1110.6
2016-May-19 14:34N 51°23' E 002°11'1110.9
2016-May-19 13:33N 51°14' E 002°03'1111.4
2016-May-19 12:33N 51°07' E 001°48'1212.2
2016-May-19 11:33N 50°58' E 001°35'15 0.4
2016-May-17 18:14N 50°43' E 001°34'0 0.0
2016-May-17 17:32N 50°43' E 001°34'0 0.0
2016-May-17 16:26N 50°43' E 001°34'0 0.0
2016-May-17 15:26N 50°43' E 001°34'0 0.1
2016-May-17 14:29N 50°44' E 001°34'0 0.0
2016-May-17 13:14N 50°44' E 001°34'0 0.0
2016-May-17 12:32N 50°44' E 001°34'0 0.0
2016-May-17 11:32N 50°44' E 001°34'0 0.0
2016-May-17 10:33N 50°44' E 001°34'6 5.8
2016-May-17 09:31N 50°44' E 001°25'4210.3
2016-May-17 05:29N 50°23' E 000°28'9 9.4
2016-May-17 04:34N 50°21' E 000°15'9 9.3
2016-May-17 03:33N 50°19' E 000°01'9 9.0
2016-May-17 02:34N 50°17' W 000°13'9 8.8
2016-May-17 01:34N 50°14' W 000°26'8 8.1
2016-May-17 00:33N 50°12' W 000°39'15 7.3
2016-May-16 22:34N 50°08' W 001°00'7 7.1
2016-May-16 21:34N 50°07' W 001°11'8 7.7
2016-May-16 20:34N 50°04' W 001°23'9 8.7
2016-May-16 19:33N 50°02' W 001°36'10 9.8
2016-May-16 18:33N 49°59' W 001°51'2412.0
2016-May-16 16:32N 49°53' W 002°27'1212.0
2016-May-16 15:34N 49°50' W 002°44'1111.3
2016-May-16 14:33N 49°45' W 002°60'1111.0
2016-May-16 13:33N 49°40' W 003°15'1110.8
2016-May-16 12:34N 49°34' W 003°29'1210.4
2016-May-16 11:21N 49°28' W 003°46'66 9.6
2016-May-16 04:29N 48°55' W 005°13'10 9.6
2016-May-16 03:25N 48°49' W 005°26'8 9.5
2016-May-16 02:33N 48°45' W 005°36'10 9.9
2016-May-16 01:33N 48°36' W 005°43'6310.6
2016-May-15 19:33N 47°40' W 006°27'1010.1
2016-May-15 18:33N 47°31' W 006°34'  

Dump ship's entire track history